San Pedro Sula, Honduras
Current Conditions -  °F | °C
As of 7:00 PM on Monday 20 Oct 2014 (Local Time) from MHLM Reporting Station
Thunderstorm Thunderstorm  
Wind Chill: 27°   Ceiling: 8000
Heat Index: 31°   Visibility: 6mi
Dew Point: 25°   Wind: 2mph
Humidity: 89%   Direction: 360°N
Pressure: 29.77"   Gusts: NA
Location:  15.47°N, 88.03°W
Report Text: MHLM 210100Z 36002KT 9999 TS SCT026CB BKN080 27/25 Q1008 A2977BECMG 7000 -RA
Loading
Personal Weather Stations






























Interactive Weather Map
Tropical Storm Tracking
New forecast layout! Learn more

10-Day Weather Forecast

Advertisements
Track Severe Weather on mobile